Time;durP1;ratioP1;P1;durP2;ratioP2;P2;SDS_P1;SDS_P2;PMS_P1;PMS_P2;Temp;Humidity;BMP_temperature;BMP_pressure;BME280_temperature;BME280_humidity;BME280_pressure;Samples;Min_cycle;Max_cycle;Signal;HPM_P1;HPM_P2
2022/05/16 00:01:11;;;;;;;2.70;2.40;;;16.40;84.80;;;;;;5004140;28;20022;-82
2022/05/16 00:03:37;;;;;;;3.20;2.90;;;16.40;85.20;;;;;;5004484;28;20029;-82
2022/05/16 00:06:03;;;;;;;2.80;2.60;;;16.40;85.60;;;;;;4986247;28;20050;-81
2022/05/16 00:08:29;;;;;;;2.47;2.25;;;16.30;85.90;;;;;;5004749;28;20034;-82
2022/05/16 00:10:56;;;;;;;2.35;2.15;;;16.30;86.20;;;;;;5014884;28;20456;-81
2022/05/16 00:13:22;;;;;;;2.17;1.92;;;16.30;86.30;;;;;;5014926;28;20006;-80
2022/05/16 00:15:47;;;;;;;3.33;2.30;;;16.30;86.60;;;;;;5011205;28;20106;-83
2022/05/16 00:18:13;;;;;;;4.22;2.20;;;16.30;86.80;;;;;;5004899;28;20112;-83
2022/05/16 00:20:39;;;;;;;2.28;2.10;;;16.30;87.30;;;;;;5006252;28;20041;-81
2022/05/16 00:23:05;;;;;;;2.78;2.30;;;16.30;87.90;;;;;;5015950;28;20029;-82
2022/05/16 00:25:31;;;;;;;2.20;2.00;;;16.30;88.40;;;;;;4998757;28;20022;-81
2022/05/16 00:27:56;;;;;;;2.38;2.17;;;16.30;89.10;;;;;;5016610;28;20018;-81
2022/05/16 00:30:22;;;;;;;2.42;1.85;;;16.20;89.60;;;;;;5016180;28;20045;-80
2022/05/16 00:32:49;;;;;;;1.90;1.80;;;16.30;90.00;;;;;;5010286;28;20595;-80
2022/05/16 00:35:17;;;;;;;2.05;1.85;;;16.30;90.20;;;;;;5001077;28;20033;-80
2022/05/16 00:37:43;;;;;;;2.67;1.90;;;16.30;90.20;;;;;;5002752;28;20058;-82
2022/05/16 00:40:11;;;;;;;2.13;1.92;;;16.20;90.40;;;;;;5004063;28;20022;-82
2022/05/16 00:42:37;;;;;;;2.42;1.95;;;16.20;90.50;;;;;;5002865;28;20022;-81
2022/05/16 00:45:04;;;;;;;2.30;2.10;;;16.20;90.60;;;;;;5016757;28;20053;-79
2022/05/16 00:47:30;;;;;;;1.83;1.73;;;16.10;90.80;;;;;;5008999;28;20034;-81
2022/05/16 00:49:56;;;;;;;2.70;2.30;;;16.10;90.90;;;;;;5002138;28;20093;-82
2022/05/16 00:52:35;;;;;;;2.92;2.42;;;16.00;91.00;;;;;;5002225;28;20023;-81
2022/05/16 00:55:16;;;;;;;2.55;2.00;;;16.00;91.10;;;;;;5002237;28;20026;-82
2022/05/16 00:57:45;;;;;;;2.67;2.28;;;16.00;91.20;;;;;;5002888;28;20360;-83
2022/05/16 01:00:24;;;;;;;2.40;1.90;;;16.00;91.50;;;;;;5003841;28;20027;-82
2022/05/16 01:05:38;;;;;;;2.47;2.28;;;16.00;91.80;;;;;;5001534;28;20053;-82
2022/05/16 01:08:08;;;;;;;2.40;2.20;;;16.00;91.90;;;;;;5006811;28;20023;-81
2022/05/16 01:10:34;;;;;;;1.92;1.83;;;15.90;92.00;;;;;;5003358;28;20031;-82
2022/05/16 01:13:01;;;;;;;3.47;2.47;;;15.90;92.10;;;;;;4985116;28;20505;-82
2022/05/16 01:15:42;;;;;;;2.40;2.20;;;15.90;92.20;;;;;;5002486;28;20029;-82
2022/05/16 01:18:11;;;;;;;2.63;2.10;;;15.80;92.30;;;;;;5006349;28;20062;-80
2022/05/16 01:20:55;;;;;;;3.88;2.60;;;15.80;92.50;;;;;;5017327;28;20038;-83
2022/05/16 01:23:24;;;;;;;2.83;2.53;;;15.80;92.60;;;;;;5016821;28;20023;-81
2022/05/16 01:25:52;;;;;;;3.25;2.85;;;15.70;92.80;;;;;;5000277;28;20105;-82
2022/05/16 01:28:20;;;;;;;4.20;2.97;;;15.80;93.00;;;;;;5000301;28;20023;-81
2022/05/16 01:30:47;;;;;;;2.97;2.60;;;15.70;93.00;;;;;;4992440;28;20030;-83
2022/05/16 01:33:17;;;;;;;2.75;2.55;;;15.80;93.30;;;;;;4999695;28;20019;-82
2022/05/16 01:35:43;;;;;;;3.75;2.80;;;15.80;93.10;;;;;;4981447;28;20049;-82
2022/05/16 01:38:18;;;;;;;2.65;2.45;;;15.80;93.20;;;;;;4987747;28;20030;-82
2022/05/16 01:40:45;;;;;;;2.63;2.42;;;15.80;93.30;;;;;;5001476;28;20392;-82
2022/05/16 01:43:12;;;;;;;3.30;2.50;;;15.70;93.30;;;;;;4984796;28;20032;-82
2022/05/16 01:45:41;;;;;;;2.58;2.38;;;15.70;93.40;;;;;;4985409;28;20026;-83
2022/05/16 01:48:07;;;;;;;3.13;2.35;;;15.70;93.40;;;;;;5001335;28;20058;-82
2022/05/16 01:50:33;;;;;;;3.50;2.33;;;15.70;93.60;;;;;;4984037;28;20061;-82
2022/05/16 01:52:59;;;;;;;3.05;2.75;;;15.70;93.70;;;;;;4985743;28;20030;-82
2022/05/16 01:55:25;;;;;;;3.58;2.88;;;15.70;93.80;;;;;;5002410;28;20062;-81
2022/05/16 01:57:51;;;;;;;2.33;2.13;;;15.70;93.80;;;;;;5001354;28;20038;-82
2022/05/16 02:00:17;;;;;;;2.50;2.30;;;15.70;94.00;;;;;;5003251;28;20033;-82
2022/05/16 02:02:44;;;;;;;5.18;2.90;;;15.70;94.00;;;;;;4994392;28;20117;-83
2022/05/16 02:05:13;;;;;;;2.60;2.40;;;15.70;94.10;;;;;;5001565;28;20114;-83
2022/05/16 02:07:40;;;;;;;3.00;2.30;;;15.70;94.20;;;;;;5001720;28;20089;-82
2022/05/16 02:10:08;;;;;;;2.28;1.90;;;15.70;94.20;;;;;;5001466;28;20030;-81
2022/05/16 02:12:35;;;;;;;3.10;2.45;;;15.70;94.20;;;;;;5002779;28;20368;-82
2022/05/16 02:15:03;;;;;;;3.95;2.90;;;15.70;94.40;;;;;;5002171;28;20082;-82
2022/05/16 02:17:28;;;;;;;3.70;3.28;;;15.70;94.10;;;;;;4985403;28;20026;-80
2022/05/16 02:19:54;;;;;;;3.22;2.67;;;15.70;93.70;;;;;;5001609;28;20034;-82
2022/05/16 02:25:05;;;;;;;3.83;2.88;;;15.60;92.80;;;;;;5005680;28;20114;-83
2022/05/16 02:27:32;;;;;;;4.72;3.17;;;15.60;92.20;;;;;;5005935;28;20022;-81
2022/05/16 02:29:59;;;;;;;4.20;2.88;;;15.50;91.90;;;;;;5006355;28;20082;-83
2022/05/16 02:32:24;;;;;;;4.18;3.00;;;15.60;91.80;;;;;;5007797;28;20029;-83
2022/05/16 02:34:50;;;;;;;2.80;2.50;;;15.50;91.70;;;;;;4988814;28;20022;-83
2022/05/16 02:37:16;;;;;;;3.35;2.63;;;15.60;91.60;;;;;;5006665;28;20042;-81
2022/05/16 02:39:44;;;;;;;2.95;2.65;;;15.60;91.50;;;;;;5007268;28;20384;-82
2022/05/16 02:42:14;;;;;;;3.05;2.75;;;15.60;91.30;;;;;;5015215;28;20022;-81
2022/05/16 02:44:42;;;;;;;3.40;3.10;;;15.70;91.30;;;;;;5019948;28;20025;-81
2022/05/16 02:47:11;;;;;;;4.55;2.90;;;15.80;91.20;;;;;;5002533;28;20101;-81
2022/05/16 02:49:37;;;;;;;3.90;3.10;;;15.80;91.10;;;;;;5002350;28;20057;-80
2022/05/16 02:52:03;;;;;;;3.53;2.50;;;15.90;91.20;;;;;;5019722;28;20026;-80
2022/05/16 02:54:28;;;;;;;4.38;2.70;;;15.90;91.30;;;;;;5003079;28;20110;-80
2022/05/16 02:56:54;;;;;;;3.15;2.30;;;16.00;91.30;;;;;;5019914;28;20014;-81
2022/05/16 02:59:20;;;;;;;4.95;2.53;;;16.00;91.10;;;;;;5019515;28;20045;-81
2022/05/16 03:01:46;;;;;;;2.92;2.63;;;16.00;91.00;;;;;;5020130;28;20018;-82
2022/05/16 03:04:12;;;;;;;4.13;2.30;;;15.90;90.80;;;;;;5002954;28;20014;-82
2022/05/16 03:06:38;;;;;;;3.72;2.75;;;15.90;90.70;;;;;;5019707;28;20037;-81
2022/05/16 03:09:04;;;;;;;4.20;2.33;;;15.90;90.50;;;;;;5019635;28;20018;-82
2022/05/16 03:11:29;;;;;;;2.92;2.60;;;15.90;90.50;;;;;;5003042;28;20022;-82
2022/05/16 03:13:55;;;;;;;5.35;2.90;;;15.90;90.50;;;;;;5011667;28;20117;-78
2022/05/16 03:16:21;;;;;;;3.22;2.53;;;15.90;90.40;;;;;;5008128;28;20010;-82
2022/05/16 03:18:47;;;;;;;3.38;2.67;;;15.90;90.40;;;;;;5017723;28;20014;-82
2022/05/16 03:21:12;;;;;;;2.35;2.05;;;15.90;90.40;;;;;;4993371;28;20077;-82
2022/05/16 03:23:38;;;;;;;4.00;2.92;;;15.80;90.30;;;;;;5000351;28;20034;-82
2022/05/16 03:26:04;;;;;;;3.90;2.70;;;15.80;90.20;;;;;;5011284;28;20031;-81
2022/05/16 03:28:30;;;;;;;3.05;2.45;;;15.80;90.40;;;;;;5014508;28;20034;-80
2022/05/16 03:30:57;;;;;;;4.90;2.50;;;15.80;90.50;;;;;;5008780;28;20032;-81
2022/05/16 03:33:24;;;;;;;2.80;2.20;;;15.80;90.40;;;;;;5007303;28;20180;-81
2022/05/16 03:35:56;;;;;;;3.17;2.30;;;15.90;90.30;;;;;;5002354;28;20033;-81
2022/05/16 03:41:17;;;;;;;2.22;2.03;;;16.00;90.30;;;;;;5001963;28;20160;-82
2022/05/16 03:43:43;;;;;;;3.10;2.30;;;16.00;90.30;;;;;;5001564;28;20030;-82
2022/05/16 03:46:09;;;;;;;2.45;2.15;;;16.10;90.30;;;;;;5002054;28;20026;-83
2022/05/16 03:48:35;;;;;;;2.30;1.95;;;16.10;90.30;;;;;;4987552;28;20029;-83
2022/05/16 03:51:02;;;;;;;2.17;1.98;;;16.10;90.30;;;;;;5006286;28;20023;-81
2022/05/16 03:53:28;;;;;;;1.80;1.70;;;16.20;90.40;;;;;;4992717;28;20057;-82
2022/05/16 03:55:54;;;;;;;1.88;1.77;;;16.20;90.40;;;;;;4982771;28;20022;-82
2022/05/16 03:58:20;;;;;;;1.88;1.77;;;16.20;90.40;;;;;;5000273;28;20117;-81
2022/05/16 04:00:46;;;;;;;2.35;2.03;;;16.30;90.30;;;;;;5000055;28;20399;-82
2022/05/16 04:03:13;;;;;;;2.40;2.20;;;16.30;90.30;;;;;;5000893;28;20034;-82
2022/05/16 04:05:39;;;;;;;2.25;2.00;;;16.30;90.20;;;;;;4999509;28;20069;-83
2022/05/16 04:08:05;;;;;;;2.17;2.00;;;16.30;90.20;;;;;;5004358;28;20020;-82
2022/05/16 04:10:31;;;;;;;2.60;2.20;;;16.30;90.20;;;;;;5015350;28;20026;-82
2022/05/16 04:12:57;;;;;;;2.45;2.25;;;16.40;90.20;;;;;;5009615;28;20104;-83
2022/05/16 04:15:23;;;;;;;2.50;2.30;;;16.40;90.00;;;;;;5003147;28;20028;-82
2022/05/16 04:17:49;;;;;;;2.03;1.83;;;16.40;90.00;;;;;;5003880;28;20089;-83
2022/05/16 04:20:17;;;;;;;2.72;2.10;;;16.50;89.80;;;;;;4986030;28;20066;-83
2022/05/16 04:22:43;;;;;;;2.47;2.00;;;16.50;89.60;;;;;;5007950;28;20046;-83
2022/05/16 04:25:14;;;;;;;2.78;2.10;;;16.60;89.30;;;;;;5013190;28;20037;-81
2022/05/16 04:27:40;;;;;;;2.22;1.98;;;16.60;88.90;;;;;;5009182;28;20093;-82
2022/05/16 04:30:07;;;;;;;2.83;2.03;;;16.70;88.70;;;;;;5003082;28;20081;-83
2022/05/16 04:32:32;;;;;;;2.60;2.10;;;16.80;88.50;;;;;;5002769;28;20090;-82
2022/05/16 04:34:58;;;;;;;1.88;1.77;;;16.80;88.30;;;;;;5002311;28;20069;-83
2022/05/16 04:37:25;;;;;;;2.33;2.00;;;16.90;88.10;;;;;;5001674;28;20480;-83
2022/05/16 04:39:52;;;;;;;2.42;2.13;;;17.00;87.90;;;;;;5001705;28;20072;-83
2022/05/16 04:42:46;;;;;;;2.70;1.65;;;17.10;87.60;;;;;;4973302;28;20039;-83
2022/05/16 04:45:38;;;;;;;2.00;1.90;;;17.20;87.10;;;;;;4968679;28;20035;-82
2022/05/16 04:48:16;;;;;;;3.72;2.35;;;17.20;86.60;;;;;;4999977;28;20128;-83
2022/05/16 04:50:55;;;;;;;2.30;2.10;;;17.30;86.50;;;;;;4985392;28;20026;-84
2022/05/16 04:53:48;;;;;;;2.30;2.10;;;17.30;86.30;;;;;;4996517;28;20054;-84
2022/05/16 04:56:49;;;;;;;3.22;2.05;;;17.40;86.10;;;;;;5001860;28;20026;-83
2022/05/16 04:59:16;;;;;;;1.85;1.73;;;17.50;85.60;;;;;;4985286;28;20033;-83
2022/05/16 05:01:42;;;;;;;3.63;2.10;;;17.60;85.30;;;;;;4986241;28;20027;-82
2022/05/16 05:04:08;;;;;;;2.35;2.10;;;17.70;85.10;;;;;;5009926;28;20078;-81
2022/05/16 05:06:34;;;;;;;1.90;1.80;;;17.90;84.50;;;;;;4983914;28;20444;-83
2022/05/16 05:09:00;;;;;;;3.03;2.67;;;18.00;83.80;;;;;;4999470;28;20476;-83
2022/05/16 05:16:54;;;;;;;2.60;2.20;;;18.10;83.20;;;;;;4999830;28;20069;-84
2022/05/16 05:19:20;;;;;;;4.00;2.20;;;18.20;83.00;;;;;;5001248;28;20034;-85
2022/05/16 05:21:46;;;;;;;3.63;2.70;;;18.40;82.50;;;;;;5000579;28;20031;-84
2022/05/16 05:24:12;;;;;;;4.05;1.92;;;18.50;81.80;;;;;;5002194;28;20026;-84
2022/05/16 05:26:39;;;;;;;2.47;2.28;;;18.50;81.30;;;;;;5015266;28;20033;-83
2022/05/16 05:29:06;;;;;;;2.95;2.33;;;18.60;81.10;;;;;;5012102;28;20467;-84
2022/05/16 05:31:32;;;;;;;2.00;1.90;;;18.60;81.00;;;;;;5001867;28;20042;-84
2022/05/16 05:33:58;;;;;;;2.28;2.08;;;18.60;81.20;;;;;;5004287;28;20061;-82
2022/05/16 05:36:27;;;;;;;2.08;1.98;;;18.70;80.50;;;;;;5011656;28;20037;-83
2022/05/16 05:38:53;;;;;;;1.75;1.65;;;18.70;80.30;;;;;;5010622;28;20066;-82
2022/05/16 05:41:22;;;;;;;1.80;1.70;;;18.80;80.20;;;;;;5017764;28;20054;-83
2022/05/16 05:43:48;;;;;;;2.28;2.08;;;19.00;79.80;;;;;;5010559;28;20056;-82
2022/05/16 05:46:13;;;;;;;1.65;1.55;;;19.10;79.20;;;;;;5017229;28;20023;-83
2022/05/16 05:48:39;;;;;;;2.17;1.98;;;19.70;78.70;;;;;;5014284;28;20049;-83
2022/05/16 05:51:05;;;;;;;2.00;1.90;;;20.90;77.40;;;;;;4992469;28;20034;-83
2022/05/16 05:53:30;;;;;;;1.92;1.75;;;22.90;71.80;;;;;;5000758;28;20014;-84
2022/05/16 05:55:56;;;;;;;1.77;1.67;;;25.00;66.30;;;;;;5001667;28;20029;-82
2022/05/16 05:58:22;;;;;;;1.70;1.60;;;26.70;59.90;;;;;;5004201;28;20037;-85
2022/05/16 06:00:48;;;;;;;5.70;2.08;;;27.80;55.80;;;;;;5005475;28;20164;-84
2022/05/16 06:03:14;;;;;;;2.00;1.90;;;29.10;52.70;;;;;;5005027;28;20022;-82
2022/05/16 06:05:40;;;;;;;2.17;1.98;;;30.00;50.40;;;;;;5006215;28;20029;-84
2022/05/16 06:08:06;;;;;;;2.03;1.90;;;30.70;48.40;;;;;;5003213;28;20594;-85
2022/05/16 06:10:32;;;;;;;1.98;1.88;;;31.50;46.80;;;;;;5003956;28;20488;-83
2022/05/16 06:13:01;;;;;;;2.03;1.80;;;32.20;45.70;;;;;;4986191;28;20062;-83
2022/05/16 06:15:27;;;;;;;2.20;2.00;;;32.50;44.60;;;;;;5002971;28;20026;-81
2022/05/16 06:17:52;;;;;;;4.60;3.08;;;32.70;43.40;;;;;;5003372;28;20034;-82
2022/05/16 06:20:18;;;;;;;4.47;2.78;;;32.80;42.90;;;;;;5005482;28;20050;-81
2022/05/16 06:22:44;;;;;;;2.20;2.00;;;33.10;42.90;;;;;;5006732;28;20546;-82
2022/05/16 06:25:31;;;;;;;4.53;2.20;;;33.10;42.20;;;;;;5007169;28;20026;-82
2022/05/16 06:28:05;;;;;;;2.20;2.00;;;33.00;42.30;;;;;;5006478;28;20030;-81
2022/05/16 06:30:32;;;;;;;2.08;1.95;;;33.40;42.20;;;;;;5013395;28;20021;-80
2022/05/16 06:32:58;;;;;;;2.15;1.85;;;33.30;41.80;;;;;;5015422;28;20021;-82
2022/05/16 06:35:24;;;;;;;3.70;2.28;;;32.70;41.20;;;;;;5010759;28;20030;-81
2022/05/16 06:37:51;;;;;;;2.25;2.05;;;30.70;42.70;;;;;;5004764;28;20074;-81
2022/05/16 06:40:18;;;;;;;3.28;2.03;;;30.00;45.30;;;;;;5005750;28;20117;-82
2022/05/16 06:42:45;;;;;;;2.00;1.80;;;31.00;44.90;;;;;;5006549;28;20050;-83
2022/05/16 06:45:12;;;;;;;2.20;2.05;;;32.60;43.50;;;;;;5008835;28;20053;-81
2022/05/16 06:47:37;;;;;;;2.15;2.00;;;33.40;42.20;;;;;;5008042;28;20034;-80
2022/05/16 06:50:04;;;;;;;1.92;1.83;;;34.00;40.70;;;;;;5008749;28;20029;-81
2022/05/16 06:52:30;;;;;;;2.17;2.00;;;32.30;40.90;;;;;;5007357;28;20026;-81
2022/05/16 06:54:56;;;;;;;3.38;2.47;;;30.50;43.10;;;;;;5004940;28;20045;-82
2022/05/16 06:57:21;;;;;;;3.25;2.90;;;28.90;45.40;;;;;;5007801;28;20081;-81
2022/05/16 06:59:47;;;;;;;5.95;3.10;;;27.50;47.60;;;;;;4997445;28;20046;-82
2022/05/16 07:02:13;;;;;;;8.25;3.85;;;26.40;49.30;;;;;;5007540;28;20037;-83
2022/05/16 07:04:39;;;;;;;9.50;3.92;;;25.60;51.20;;;;;;5003459;28;20054;-81
2022/05/16 07:07:08;;;;;;;6.00;3.25;;;25.30;52.30;;;;;;5003312;28;20034;-81
2022/05/16 07:09:34;;;;;;;9.20;3.05;;;25.00;52.40;;;;;;5001699;28;20069;-82
2022/05/16 07:12:00;;;;;;;4.93;3.30;;;24.80;53.40;;;;;;5004426;28;20022;-84
2022/05/16 07:14:25;;;;;;;10.10;3.85;;;24.50;53.70;;;;;;5004935;28;20110;-84
2022/05/16 07:16:51;;;;;;;6.05;2.90;;;24.20;54.60;;;;;;5005337;28;20080;-84
2022/05/16 07:19:17;;;;;;;5.53;2.80;;;24.00;55.30;;;;;;5004887;28;20027;-83
2022/05/16 07:21:43;;;;;;;6.75;2.97;;;23.70;55.60;;;;;;4986439;28;20034;-83
2022/05/16 07:24:09;;;;;;;3.85;2.60;;;23.50;55.90;;;;;;5004471;28;20034;-82
2022/05/16 07:29:19;;;;;;;5.25;3.05;;;23.30;56.70;;;;;;5014948;28;20089;-83
2022/05/16 07:31:46;;;;;;;10.95;4.70;;;23.40;57.30;;;;;;5004978;28;20026;-84
2022/05/16 07:34:12;;;;;;;5.68;2.83;;;23.50;56.40;;;;;;5005038;28;20069;-83
2022/05/16 07:36:38;;;;;;;3.55;2.50;;;23.50;56.40;;;;;;4989136;28;20015;-83
2022/05/16 07:39:04;;;;;;;6.35;3.30;;;23.50;56.80;;;;;;5006775;28;20026;-87
2022/05/16 07:41:31;;;;;;;5.43;2.05;;;23.60;57.00;;;;;;5006860;28;20026;-81
2022/05/16 07:43:57;;;;;;;6.30;3.05;;;23.60;56.50;;;;;;4990510;28;20027;-82
2022/05/16 07:46:23;;;;;;;5.00;2.70;;;23.70;56.50;;;;;;5008962;28;20498;-81
2022/05/16 07:48:50;;;;;;;6.40;2.75;;;23.70;57.00;;;;;;5013905;28;20027;-81
2022/05/16 07:51:16;;;;;;;3.92;2.45;;;23.70;56.80;;;;;;5006317;28;20416;-82
2022/05/16 07:53:42;;;;;;;5.32;2.50;;;23.70;56.90;;;;;;5005898;28;20029;-81
2022/05/16 07:56:11;;;;;;;7.50;2.72;;;23.80;57.00;;;;;;5007995;28;20384;-81
2022/05/16 07:58:37;;;;;;;5.10;2.00;;;24.00;57.20;;;;;;5006991;28;20502;-81
2022/05/16 08:01:03;;;;;;;5.78;2.25;;;24.00;57.60;;;;;;5007759;28;20116;-81
2022/05/16 08:03:31;;;;;;;5.35;2.22;;;24.00;57.80;;;;;;4989589;28;20034;-81
2022/05/16 08:05:57;;;;;;;4.97;2.47;;;24.00;58.00;;;;;;5008854;28;20023;-82
2022/05/16 08:11:11;;;;;;;4.13;2.40;;;24.30;58.20;;;;;;5008180;28;20039;-84
2022/05/16 08:13:41;;;;;;;7.28;3.10;;;24.40;58.20;;;;;;4988238;28;20049;-83
2022/05/16 08:16:07;;;;;;;3.58;2.60;;;24.60;57.80;;;;;;5450665;23;20042;-83
2022/05/16 08:18:33;;;;;;;7.43;2.72;;;24.80;57.50;;;;;;5028794;28;20442;-84
2022/05/16 08:20:59;;;;;;;6.70;2.35;;;24.90;57.10;;;;;;5010681;28;20069;-83
2022/05/16 08:23:28;;;;;;;4.90;1.95;;;25.10;57.20;;;;;;5019361;28;20014;-83
2022/05/16 08:25:55;;;;;;;7.55;2.10;;;25.20;54.30;;;;;;5036179;28;20026;-82
2022/05/16 08:28:22;;;;;;;2.70;1.67;;;25.00;54.40;;;;;;5036506;28;20041;-82
2022/05/16 08:30:49;;;;;;;2.85;1.60;;;24.90;54.50;;;;;;5040979;28;20089;-82
2022/05/16 08:33:15;;;;;;;3.45;1.90;;;24.70;55.20;;;;;;5021391;28;20057;-83
2022/05/16 08:35:42;;;;;;;6.97;2.50;;;24.50;55.80;;;;;;5015029;28;20022;-84
2022/05/16 08:41:12;;;;;;;6.20;1.88;;;24.80;55.60;;;;;;5031426;28;20040;-83
2022/05/16 08:43:46;;;;;;;8.52;1.85;;;25.10;54.60;;;;;;5021164;28;20031;-84
2022/05/16 08:46:26;;;;;;;7.10;1.65;;;25.00;55.20;;;;;;4995012;28;20106;-84
2022/05/16 08:49:24;;;;;;;4.30;2.08;;;24.90;55.80;;;;;;5012800;28;20057;-85
2022/05/16 08:52:03;;;;;;;3.85;2.17;;;24.90;55.60;;;;;;5004014;28;20018;-83
2022/05/16 08:54:28;;;;;;;5.55;1.88;;;24.60;56.10;;;;;;5012309;28;20018;-85
2022/05/16 08:56:59;;;;;;;10.85;2.05;;;24.40;56.80;;;;;;5015258;28;20040;-83
2022/05/16 08:59:26;;;;;;;13.65;3.47;;;24.20;57.40;;;;;;5031216;28;20037;-83
2022/05/16 09:02:04;;;;;;;5.80;2.30;;;24.10;57.60;;;;;;5029265;28;20262;-84
2022/05/16 09:05:01;;;;;;;3.42;1.67;;;24.00;57.40;;;;;;5012070;28;20209;-84
2022/05/16 09:07:34;;;;;;;2.28;1.70;;;23.70;58.80;;;;;;5025965;28;20026;-82
2022/05/16 09:10:10;;;;;;;3.63;1.50;;;23.50;59.10;;;;;;5026656;28;20497;-83
2022/05/16 09:13:14;;;;;;;2.75;1.50;;;23.20;60.30;;;;;;5009456;28;20097;-82
2022/05/16 09:16:18;;;;;;;5.78;1.70;;;22.90;61.60;;;;;;5027883;28;20030;-82
2022/05/16 09:19:11;;;;;;;2.78;2.13;;;22.80;62.00;;;;;;5019590;28;20146;-82
2022/05/16 09:21:59;;;;;;;5.45;2.03;;;22.60;62.60;;;;;;5028387;28;20022;-81
2022/05/16 09:24:35;;;;;;;3.80;1.83;;;22.30;63.80;;;;;;5030070;28;20033;-81
2022/05/16 09:27:09;;;;;;;2.65;1.77;;;22.10;64.40;;;;;;5037011;28;20117;-83
2022/05/16 09:29:45;;;;;;;4.03;1.80;;;21.90;65.20;;;;;;5033573;28;20021;-81
2022/05/16 09:32:28;;;;;;;2.92;1.58;;;21.80;65.70;;;;;;5037199;28;20045;-82
2022/05/16 09:34:54;;;;;;;1.73;1.60;;;21.70;66.50;;;;;;5033327;28;20018;-84
2022/05/16 09:37:20;;;;;;;3.08;1.90;;;21.60;66.60;;;;;;5034053;28;20475;-83
2022/05/16 09:39:48;;;;;;;2.55;1.83;;;21.60;67.00;;;;;;5032068;28;20030;-84
2022/05/16 09:42:20;;;;;;;3.95;2.08;;;21.60;67.30;;;;;;5032997;28;20022;-83
2022/05/16 09:44:48;;;;;;;;;;;21.70;67.70;;;;;;5032782;28;20026;-82
2022/05/16 09:47:28;;;;;;;2.53;1.90;;;21.70;67.50;;;;;;5021317;28;19905;-83
2022/05/16 09:50:17;;;;;;;4.65;1.70;;;21.80;67.10;;;;;;5028582;28;20033;-82
2022/05/16 09:52:52;;;;;;;5.13;1.88;;;21.90;66.60;;;;;;5018930;22;20042;-82
2022/05/16 09:55:33;;;;;;;2.13;1.83;;;22.10;66.40;;;;;;5004111;28;20034;-83
2022/05/16 09:58:13;;;;;;;3.03;2.20;;;22.30;65.80;;;;;;4985916;28;20100;-81
2022/05/16 10:00:44;;;;;;;3.03;2.15;;;22.40;65.20;;;;;;5003442;28;20060;-81
2022/05/16 10:03:13;;;;;;;3.85;1.70;;;22.40;64.20;;;;;;5007964;28;20406;-82
2022/05/16 10:05:46;;;;;;;1.80;1.50;;;22.40;64.20;;;;;;4988068;28;20030;-81
2022/05/16 10:08:17;;;;;;;2.08;1.80;;;22.30;65.10;;;;;;4986194;28;20034;-82
2022/05/16 10:10:46;;;;;;;4.07;1.90;;;22.20;64.90;;;;;;4985996;28;20037;-81
2022/05/16 10:13:12;;;;;;;2.63;2.00;;;22.30;65.20;;;;;;4975308;28;20022;-83
2022/05/16 10:15:38;;;;;;;1.50;1.40;;;22.40;64.90;;;;;;5006977;28;20573;-81
2022/05/16 10:18:08;;;;;;;3.70;1.55;;;22.60;65.00;;;;;;5005579;28;20037;-82
2022/05/16 10:20:39;;;;;;;2.35;1.48;;;23.10;64.20;;;;;;5005971;28;20086;-81
2022/05/16 10:23:24;;;;;;;1.40;1.30;;;23.50;61.60;;;;;;4990424;28;20029;-83
2022/05/16 10:25:54;;;;;;;3.55;1.58;;;23.60;61.20;;;;;;4967920;28;20031;-83
2022/05/16 10:28:36;;;;;;;1.85;1.50;;;23.60;60.70;;;;;;4967814;28;20052;-81
2022/05/16 10:33:50;;;;;;;7.45;1.90;;;23.20;61.40;;;;;;4996080;28;20041;-80
2022/05/16 10:36:26;;;;;;;3.08;1.10;;;22.90;62.00;;;;;;5006829;28;20018;-79
2022/05/16 10:39:14;;;;;;;5.20;1.63;;;22.60;62.60;;;;;;5004766;28;20018;-81
2022/05/16 10:41:53;;;;;;;3.50;1.30;;;22.50;62.60;;;;;;5004099;28;20030;-81
2022/05/16 10:44:22;;;;;;;1.10;1.10;;;22.30;63.30;;;;;;5006432;28;20113;-79
2022/05/16 10:47:15;;;;;;;1.77;1.52;;;22.10;64.10;;;;;;5010288;28;20042;-79
2022/05/16 10:50:00;;;;;;;1.23;1.13;;;22.00;64.90;;;;;;5010178;28;20034;-81
2022/05/16 10:52:41;;;;;;;2.45;1.50;;;21.90;66.40;;;;;;4986941;28;20057;-80
2022/05/16 10:55:08;;;;;;;2.05;1.45;;;21.70;67.80;;;;;;5017454;28;20027;-80
2022/05/16 10:57:53;;;;;;;2.13;1.90;;;21.60;69.10;;;;;;5008041;28;20827;-81
2022/05/16 11:00:20;;;;;;;1.33;1.23;;;21.50;69.90;;;;;;4989179;28;20382;-83
2022/05/16 11:03:24;;;;;;;3.45;1.60;;;21.40;70.70;;;;;;5004699;28;20025;-83
2022/05/16 11:06:20;;;;;;;1.60;1.50;;;21.20;72.10;;;;;;5002450;28;20027;-83
2022/05/16 11:09:04;;;;;;;1.73;1.50;;;21.10;72.70;;;;;;5011653;28;20027;-79
2022/05/16 11:12:11;;;;;;;2.35;1.92;;;21.10;72.60;;;;;;5008041;28;20014;-82
2022/05/16 11:14:54;;;;;;;2.85;1.77;;;21.20;73.40;;;;;;4981592;28;20080;-83
2022/05/16 11:17:44;;;;;;;2.08;1.70;;;21.60;73.00;;;;;;4982678;28;20142;-82
2022/05/16 11:20:22;;;;;;;1.70;1.40;;;21.90;71.90;;;;;;4981188;28;20027;-82
2022/05/16 11:23:01;;;;;;;2.05;1.30;;;22.30;70.90;;;;;;4992726;28;20396;-81
2022/05/16 11:26:00;;;;;;;1.30;1.20;;;22.70;68.40;;;;;;5001347;28;20061;-84
2022/05/16 11:29:17;;;;;;;1.50;1.30;;;22.90;68.50;;;;;;5002172;28;20057;-83
2022/05/16 11:31:37;;;;;;;2.00;1.80;;;23.00;68.10;;;;;;5003378;28;20030;-83
2022/05/16 11:34:08;;;;;;;4.93;2.33;;;23.30;69.60;;;;;;5004040;28;20045;-83
2022/05/16 11:36:44;;;;;;;4.25;1.92;;;23.60;67.60;;;;;;4994104;28;20046;-82
2022/05/16 11:39:23;;;;;;;2.47;2.05;;;23.80;65.50;;;;;;4982834;28;20055;-82
2022/05/16 11:42:35;;;;;;;2.33;1.45;;;23.80;62.60;;;;;;4983485;28;20484;-82
2022/05/16 11:45:13;;;;;;;3.50;1.52;;;23.70;64.10;;;;;;4971593;28;20050;-83
2022/05/16 11:47:48;;;;;;;2.30;1.52;;;23.80;63.90;;;;;;5000071;28;20490;-80
2022/05/16 11:50:23;;;;;;;1.90;1.58;;;24.10;63.50;;;;;;5001625;28;20038;-81
2022/05/16 11:53:07;;;;;;;2.58;1.58;;;24.30;62.00;;;;;;5000270;28;20041;-82
2022/05/16 12:01:27;;;;;;;1.20;1.20;;;24.80;60.00;;;;;;5000602;28;20413;-82
2022/05/16 12:04:15;;;;;;;1.73;1.63;;;25.10;59.30;;;;;;4983642;28;20058;-83
2022/05/16 12:06:58;;;;;;;1.40;1.23;;;25.70;57.90;;;;;;4999028;28;20066;-81
2022/05/16 12:09:29;;;;;;;1.05;1.05;;;25.90;56.60;;;;;;5000774;28;20419;-83
2022/05/16 12:11:56;;;;;;;2.58;1.50;;;26.10;55.30;;;;;;5002657;28;20038;-82
2022/05/16 12:14:36;;;;;;;1.30;1.15;;;26.40;53.80;;;;;;5015854;28;20026;-80
2022/05/16 12:17:07;;;;;;;2.10;1.38;;;26.40;53.80;;;;;;5016159;28;20018;-81
2022/05/16 12:19:37;;;;;;;1.15;1.08;;;26.50;53.90;;;;;;5014888;28;20073;-79
2022/05/16 12:22:09;;;;;;;1.77;1.67;;;26.70;53.90;;;;;;4987933;28;20046;-80
2022/05/16 12:24:42;;;;;;;2.25;1.27;;;27.00;53.50;;;;;;5002590;28;20026;-84
2022/05/16 12:27:16;;;;;;;1.30;1.20;;;27.10;53.00;;;;;;5001447;28;20566;-83
2022/05/16 12:30:01;;;;;;;3.17;1.38;;;27.10;53.60;;;;;;4982087;28;20034;-83
2022/05/16 12:32:30;;;;;;;1.38;1.27;;;27.00;53.50;;;;;;4983238;28;20066;-82
2022/05/16 12:35:33;;;;;;;1.35;1.20;;;27.30;53.40;;;;;;4983608;28;20061;-84
2022/05/16 12:37:58;;;;;;;1.25;1.15;;;27.50;52.40;;;;;;4987693;28;20030;-85
2022/05/16 12:40:43;;;;;;;1.50;1.40;;;27.50;51.80;;;;;;5004495;28;20467;-83
2022/05/16 12:43:46;;;;;;;3.08;1.48;;;27.30;51.30;;;;;;5001870;28;20054;-84
2022/05/16 12:46:40;;;;;;;2.35;1.55;;;27.30;51.20;;;;;;4984800;28;20034;-84
2022/05/16 12:49:06;;;;;;;1.80;1.27;;;27.10;51.00;;;;;;5001996;28;20053;-83
2022/05/16 12:51:59;;;;;;;2.38;1.23;;;26.90;51.30;;;;;;5001599;28;20038;-84
2022/05/16 12:55:03;;;;;;;1.83;1.60;;;27.00;51.20;;;;;;4984036;28;20030;-84
2022/05/16 12:57:51;;;;;;;1.63;1.40;;;26.90;50.40;;;;;;5000854;28;20030;-84
2022/05/16 13:00:24;;;;;;;1.92;1.73;;;27.20;51.00;;;;;;5007118;28;20027;-84
2022/05/16 13:03:22;;;;;;;2.05;1.20;;;27.30;49.50;;;;;;5013422;28;20054;-84
2022/05/16 13:06:03;;;;;;;3.33;2.00;;;27.30;49.50;;;;;;4999006;28;20095;-84
2022/05/16 13:08:44;;;;;;;1.27;1.10;;;27.30;49.40;;;;;;4982907;28;20039;-82
2022/05/16 13:11:35;;;;;;;1.77;1.55;;;27.10;49.50;;;;;;5004494;28;20041;-83
2022/05/16 13:14:04;;;;;;;1.83;1.27;;;27.10;49.70;;;;;;5019615;28;20022;-82
2022/05/16 13:16:33;;;;;;;4.63;1.45;;;27.30;49.30;;;;;;5019155;28;20089;-84
2022/05/16 13:19:11;;;;;;;1.98;1.75;;;27.50;48.20;;;;;;4985936;28;20363;-82
2022/05/16 13:21:52;;;;;;;2.85;1.30;;;27.60;48.80;;;;;;5004811;28;20105;-83
2022/05/16 13:24:20;;;;;;;1.95;1.40;;;27.70;48.10;;;;;;4992940;28;20023;-84
2022/05/16 13:29:34;;;;;;;1.17;1.08;;;27.50;48.40;;;;;;5003105;28;20025;-82
2022/05/16 13:32:09;;;;;;;2.22;1.52;;;27.60;48.30;;;;;;5006464;28;20096;-83
2022/05/16 13:34:55;;;;;;;1.75;1.65;;;27.80;48.30;;;;;;4985963;28;20420;-84
2022/05/16 13:37:42;;;;;;;2.63;1.60;;;28.10;47.60;;;;;;4983123;28;20529;-83
2022/05/16 13:40:14;;;;;;;2.60;1.80;;;28.20;47.70;;;;;;4985756;28;20031;-86
2022/05/16 13:42:42;;;;;;;3.17;1.60;;;28.30;46.80;;;;;;5002857;28;20113;-84
2022/05/16 13:45:09;;;;;;;1.65;1.50;;;27.70;47.60;;;;;;5001596;28;20027;-84